sensor_id;sensor_type;location;lat;lon;timestamp;temperature;humidity
14733;DHT22;7457;50.960;6.830;2023-02-01T00:01:49;6.30;96.80
14733;DHT22;7457;50.960;6.830;2023-02-01T00:04:15;6.20;96.80
14733;DHT22;7457;50.960;6.830;2023-02-01T00:06:41;6.20;96.70
14733;DHT22;7457;50.960;6.830;2023-02-01T00:09:06;6.20;96.80
14733;DHT22;7457;50.960;6.830;2023-02-01T00:11:33;6.10;96.80
14733;DHT22;7457;50.960;6.830;2023-02-01T00:13:58;6.10;96.90
14733;DHT22;7457;50.960;6.830;2023-02-01T00:16:27;6.00;96.90
14733;DHT22;7457;50.960;6.830;2023-02-01T00:19:01;6.00;96.90
14733;DHT22;7457;50.960;6.830;2023-02-01T00:21:27;5.90;97.00
14733;DHT22;7457;50.960;6.830;2023-02-01T00:23:53;5.90;97.00
14733;DHT22;7457;50.960;6.830;2023-02-01T00:26:35;5.90;96.90
14733;DHT22;7457;50.960;6.830;2023-02-01T00:29:04;5.90;96.80
14733;DHT22;7457;50.960;6.830;2023-02-01T00:31:30;5.90;96.70
14733;DHT22;7457;50.960;6.830;2023-02-01T00:33:56;5.80;96.60
14733;DHT22;7457;50.960;6.830;2023-02-01T00:36:21;5.80;96.40
14733;DHT22;7457;50.960;6.830;2023-02-01T00:38:47;5.80;96.30
14733;DHT22;7457;50.960;6.830;2023-02-01T00:41:16;5.80;96.30
14733;DHT22;7457;50.960;6.830;2023-02-01T00:43:42;5.80;96.10
14733;DHT22;7457;50.960;6.830;2023-02-01T00:46:09;5.80;96.00
14733;DHT22;7457;50.960;6.830;2023-02-01T00:48:34;5.80;95.90
14733;DHT22;7457;50.960;6.830;2023-02-01T00:51:05;5.80;95.90
14733;DHT22;7457;50.960;6.830;2023-02-01T00:53:32;5.80;95.80
14733;DHT22;7457;50.960;6.830;2023-02-01T00:55:58;5.80;95.60
14733;DHT22;7457;50.960;6.830;2023-02-01T00:58:24;5.80;95.10
14733;DHT22;7457;50.960;6.830;2023-02-01T01:01:01;5.80;94.90
14733;DHT22;7457;50.960;6.830;2023-02-01T01:03:27;5.80;95.00
14733;DHT22;7457;50.960;6.830;2023-02-01T01:05:56;5.80;94.40
14733;DHT22;7457;50.960;6.830;2023-02-01T01:08:22;5.80;94.00
14733;DHT22;7457;50.960;6.830;2023-02-01T01:10:48;5.80;93.70
14733;DHT22;7457;50.960;6.830;2023-02-01T01:13:14;5.80;93.30
14733;DHT22;7457;50.960;6.830;2023-02-01T01:15:41;5.80;93.40
14733;DHT22;7457;50.960;6.830;2023-02-01T01:18:08;5.80;93.20
14733;DHT22;7457;50.960;6.830;2023-02-01T01:20:35;5.70;93.10
14733;DHT22;7457;50.960;6.830;2023-02-01T01:23:01;5.70;93.20
14733;DHT22;7457;50.960;6.830;2023-02-01T01:25:27;5.70;93.00
14733;DHT22;7457;50.960;6.830;2023-02-01T01:27:53;5.70;93.10
14733;DHT22;7457;50.960;6.830;2023-02-01T01:30:18;5.70;93.00
14733;DHT22;7457;50.960;6.830;2023-02-01T01:32:44;5.70;92.90
14733;DHT22;7457;50.960;6.830;2023-02-01T01:35:10;5.60;93.00
14733;DHT22;7457;50.960;6.830;2023-02-01T01:37:36;5.60;92.80
14733;DHT22;7457;50.960;6.830;2023-02-01T01:40:04;5.60;92.40
14733;DHT22;7457;50.960;6.830;2023-02-01T01:42:30;5.50;92.30
14733;DHT22;7457;50.960;6.830;2023-02-01T01:45:02;5.50;92.20
14733;DHT22;7457;50.960;6.830;2023-02-01T01:47:36;5.40;92.20
14733;DHT22;7457;50.960;6.830;2023-02-01T01:50:04;5.30;92.10
14733;DHT22;7457;50.960;6.830;2023-02-01T01:52:31;5.30;92.20
14733;DHT22;7457;50.960;6.830;2023-02-01T01:54:58;5.20;92.30
14733;DHT22;7457;50.960;6.830;2023-02-01T01:57:27;5.20;92.30
14733;DHT22;7457;50.960;6.830;2023-02-01T02:00:00;5.10;92.40
14733;DHT22;7457;50.960;6.830;2023-02-01T02:02:28;5.10;92.50
14733;DHT22;7457;50.960;6.830;2023-02-01T02:04:53;5.00;92.50
14733;DHT22;7457;50.960;6.830;2023-02-01T02:07:32;5.10;92.60
14733;DHT22;7457;50.960;6.830;2023-02-01T02:09:58;5.10;92.50
14733;DHT22;7457;50.960;6.830;2023-02-01T02:12:24;5.10;92.60
14733;DHT22;7457;50.960;6.830;2023-02-01T02:14:49;5.20;92.50
14733;DHT22;7457;50.960;6.830;2023-02-01T02:43:42;5.40;92.20
14733;DHT22;7457;50.960;6.830;2023-02-01T02:46:34;5.40;92.20
14733;DHT22;7457;50.960;6.830;2023-02-01T02:49:20;5.40;92.10
14733;DHT22;7457;50.960;6.830;2023-02-01T02:52:13;5.40;91.90
14733;DHT22;7457;50.960;6.830;2023-02-01T02:55:01;5.50;91.90
14733;DHT22;7457;50.960;6.830;2023-02-01T02:57:37;5.60;91.60
14733;DHT22;7457;50.960;6.830;2023-02-01T03:00:28;5.60;91.30
14733;DHT22;7457;50.960;6.830;2023-02-01T03:03:12;5.60;91.20
14733;DHT22;7457;50.960;6.830;2023-02-01T03:05:57;5.70;91.20
14733;DHT22;7457;50.960;6.830;2023-02-01T03:08:27;5.70;91.10
14733;DHT22;7457;50.960;6.830;2023-02-01T03:11:06;5.70;91.00
14733;DHT22;7457;50.960;6.830;2023-02-01T03:21:29;5.80;90.90
14733;DHT22;7457;50.960;6.830;2023-02-01T03:23:59;5.80;91.00
14733;DHT22;7457;50.960;6.830;2023-02-01T03:26:28;5.80;90.90
14733;DHT22;7457;50.960;6.830;2023-02-01T03:29:00;5.80;90.70
14733;DHT22;7457;50.960;6.830;2023-02-01T03:31:28;5.80;90.80
14733;DHT22;7457;50.960;6.830;2023-02-01T03:33:54;5.80;90.60
14733;DHT22;7457;50.960;6.830;2023-02-01T03:46:45;5.80;90.00
14733;DHT22;7457;50.960;6.830;2023-02-01T03:49:18;5.80;90.10
14733;DHT22;7457;50.960;6.830;2023-02-01T03:51:47;5.70;89.90
14733;DHT22;7457;50.960;6.830;2023-02-01T03:54:15;5.70;89.80
14733;DHT22;7457;50.960;6.830;2023-02-01T03:56:43;5.60;89.80
14733;DHT22;7457;50.960;6.830;2023-02-01T03:59:10;5.60;89.90
14733;DHT22;7457;50.960;6.830;2023-02-01T04:01:36;5.50;90.00
14733;DHT22;7457;50.960;6.830;2023-02-01T04:04:02;5.50;90.20
14733;DHT22;7457;50.960;6.830;2023-02-01T04:06:27;5.50;90.30
14733;DHT22;7457;50.960;6.830;2023-02-01T04:08:53;5.50;90.30
14733;DHT22;7457;50.960;6.830;2023-02-01T04:11:19;5.50;90.40
14733;DHT22;7457;50.960;6.830;2023-02-01T04:13:44;5.50;90.30
14733;DHT22;7457;50.960;6.830;2023-02-01T04:16:10;5.60;90.30
14733;DHT22;7457;50.960;6.830;2023-02-01T04:18:36;5.50;90.20
14733;DHT22;7457;50.960;6.830;2023-02-01T04:21:02;5.60;90.10
14733;DHT22;7457;50.960;6.830;2023-02-01T04:23:28;5.60;90.00
14733;DHT22;7457;50.960;6.830;2023-02-01T04:25:58;5.60;90.00
14733;DHT22;7457;50.960;6.830;2023-02-01T04:28:23;5.60;89.80
14733;DHT22;7457;50.960;6.830;2023-02-01T04:30:49;5.60;89.70
14733;DHT22;7457;50.960;6.830;2023-02-01T04:33:14;5.60;89.60
14733;DHT22;7457;50.960;6.830;2023-02-01T04:35:40;5.70;89.40
14733;DHT22;7457;50.960;6.830;2023-02-01T04:38:06;5.60;89.40
14733;DHT22;7457;50.960;6.830;2023-02-01T04:40:32;5.60;89.30
14733;DHT22;7457;50.960;6.830;2023-02-01T04:42:58;5.60;89.20
14733;DHT22;7457;50.960;6.830;2023-02-01T04:45:23;5.50;89.00
14733;DHT22;7457;50.960;6.830;2023-02-01T04:47:49;5.50;89.00
14733;DHT22;7457;50.960;6.830;2023-02-01T04:50:16;5.40;89.00
14733;DHT22;7457;50.960;6.830;2023-02-01T04:52:41;5.30;89.00
14733;DHT22;7457;50.960;6.830;2023-02-01T04:55:07;5.30;89.10
14733;DHT22;7457;50.960;6.830;2023-02-01T04:57:33;5.30;89.00
14733;DHT22;7457;50.960;6.830;2023-02-01T04:59:59;5.30;89.00
14733;DHT22;7457;50.960;6.830;2023-02-01T05:02:24;5.20;88.90
14733;DHT22;7457;50.960;6.830;2023-02-01T05:04:50;5.20;88.80
14733;DHT22;7457;50.960;6.830;2023-02-01T05:07:16;5.10;88.70
14733;DHT22;7457;50.960;6.830;2023-02-01T05:09:41;5.10;88.70
14733;DHT22;7457;50.960;6.830;2023-02-01T05:12:08;5.10;88.70
14733;DHT22;7457;50.960;6.830;2023-02-01T05:15:10;5.10;88.70
14733;DHT22;7457;50.960;6.830;2023-02-01T05:17:35;5.10;88.60
14733;DHT22;7457;50.960;6.830;2023-02-01T05:20:01;5.00;88.60
14733;DHT22;7457;50.960;6.830;2023-02-01T05:22:26;5.00;88.60
14733;DHT22;7457;50.960;6.830;2023-02-01T05:24:52;5.10;88.40
14733;DHT22;7457;50.960;6.830;2023-02-01T05:27:17;5.10;88.40
14733;DHT22;7457;50.960;6.830;2023-02-01T05:29:43;5.00;88.40
14733;DHT22;7457;50.960;6.830;2023-02-01T05:32:09;5.00;88.30
14733;DHT22;7457;50.960;6.830;2023-02-01T05:34:35;5.00;88.30
14733;DHT22;7457;50.960;6.830;2023-02-01T05:37:02;5.00;88.30
14733;DHT22;7457;50.960;6.830;2023-02-01T05:39:27;5.00;88.30
14733;DHT22;7457;50.960;6.830;2023-02-01T05:41:53;4.90;88.20
14733;DHT22;7457;50.960;6.830;2023-02-01T05:44:18;4.90;88.20
14733;DHT22;7457;50.960;6.830;2023-02-01T05:46:44;4.90;88.20
14733;DHT22;7457;50.960;6.830;2023-02-01T05:49:10;5.00;88.10
14733;DHT22;7457;50.960;6.830;2023-02-01T05:51:35;4.90;88.10
14733;DHT22;7457;50.960;6.830;2023-02-01T05:54:01;4.90;88.00
14733;DHT22;7457;50.960;6.830;2023-02-01T05:56:26;4.90;88.00
14733;DHT22;7457;50.960;6.830;2023-02-01T05:58:52;4.90;88.00
14733;DHT22;7457;50.960;6.830;2023-02-01T06:01:17;4.90;88.10
14733;DHT22;7457;50.960;6.830;2023-02-01T06:03:43;4.90;88.10
14733;DHT22;7457;50.960;6.830;2023-02-01T06:06:09;4.90;88.00
14733;DHT22;7457;50.960;6.830;2023-02-01T06:08:34;4.90;87.90
14733;DHT22;7457;50.960;6.830;2023-02-01T06:11:02;4.90;87.80
14733;DHT22;7457;50.960;6.830;2023-02-01T06:13:28;4.90;87.80
14733;DHT22;7457;50.960;6.830;2023-02-01T06:15:54;4.90;87.80
14733;DHT22;7457;50.960;6.830;2023-02-01T06:18:21;4.90;87.80
14733;DHT22;7457;50.960;6.830;2023-02-01T06:20:55;4.80;87.80
14733;DHT22;7457;50.960;6.830;2023-02-01T06:23:21;4.80;87.90
14733;DHT22;7457;50.960;6.830;2023-02-01T06:25:50;4.80;88.00
14733;DHT22;7457;50.960;6.830;2023-02-01T06:28:16;4.70;88.10
14733;DHT22;7457;50.960;6.830;2023-02-01T06:30:41;4.70;88.20
14733;DHT22;7457;50.960;6.830;2023-02-01T06:33:14;4.70;88.20
14733;DHT22;7457;50.960;6.830;2023-02-01T06:35:43;4.70;88.20
14733;DHT22;7457;50.960;6.830;2023-02-01T06:38:10;4.60;88.40
14733;DHT22;7457;50.960;6.830;2023-02-01T06:40:37;4.60;88.60
14733;DHT22;7457;50.960;6.830;2023-02-01T06:43:02;4.60;88.60
14733;DHT22;7457;50.960;6.830;2023-02-01T06:45:28;4.60;88.70
14733;DHT22;7457;50.960;6.830;2023-02-01T06:47:54;4.60;88.70
14733;DHT22;7457;50.960;6.830;2023-02-01T06:50:19;4.60;88.90
14733;DHT22;7457;50.960;6.830;2023-02-01T06:52:45;4.70;89.10
14733;DHT22;7457;50.960;6.830;2023-02-01T06:55:11;4.70;89.10
14733;DHT22;7457;50.960;6.830;2023-02-01T06:57:37;4.80;89.00
14733;DHT22;7457;50.960;6.830;2023-02-01T07:00:03;4.90;88.90
14733;DHT22;7457;50.960;6.830;2023-02-01T07:02:29;5.00;88.80
14733;DHT22;7457;50.960;6.830;2023-02-01T07:04:55;5.00;88.70
14733;DHT22;7457;50.960;6.830;2023-02-01T07:07:20;5.00;88.70
14733;DHT22;7457;50.960;6.830;2023-02-01T07:09:48;5.00;88.50
14733;DHT22;7457;50.960;6.830;2023-02-01T07:12:14;5.00;88.60
14733;DHT22;7457;50.960;6.830;2023-02-01T07:14:40;5.00;88.70
14733;DHT22;7457;50.960;6.830;2023-02-01T07:17:05;5.00;88.90
14733;DHT22;7457;50.960;6.830;2023-02-01T07:19:31;5.00;89.00
14733;DHT22;7457;50.960;6.830;2023-02-01T07:21:56;5.00;89.20
14733;DHT22;7457;50.960;6.830;2023-02-01T07:24:22;5.00;89.30
14733;DHT22;7457;50.960;6.830;2023-02-01T07:26:47;5.10;89.40
14733;DHT22;7457;50.960;6.830;2023-02-01T07:29:14;5.10;89.60
14733;DHT22;7457;50.960;6.830;2023-02-01T07:31:39;5.10;89.60
14733;DHT22;7457;50.960;6.830;2023-02-01T07:34:05;5.10;89.70
14733;DHT22;7457;50.960;6.830;2023-02-01T07:36:31;5.10;89.90
14733;DHT22;7457;50.960;6.830;2023-02-01T07:38:57;5.10;89.90
14733;DHT22;7457;50.960;6.830;2023-02-01T07:41:23;5.10;90.10
14733;DHT22;7457;50.960;6.830;2023-02-01T07:43:48;5.10;90.10
14733;DHT22;7457;50.960;6.830;2023-02-01T07:46:17;5.10;90.10
14733;DHT22;7457;50.960;6.830;2023-02-01T07:48:42;5.20;90.30
14733;DHT22;7457;50.960;6.830;2023-02-01T07:51:10;5.10;90.50
14733;DHT22;7457;50.960;6.830;2023-02-01T07:53:37;5.10;90.60
14733;DHT22;7457;50.960;6.830;2023-02-01T07:56:03;5.10;90.70
14733;DHT22;7457;50.960;6.830;2023-02-01T07:58:29;5.10;90.70
14733;DHT22;7457;50.960;6.830;2023-02-01T08:00:55;5.10;90.70
14733;DHT22;7457;50.960;6.830;2023-02-01T08:03:39;5.20;90.90
14733;DHT22;7457;50.960;6.830;2023-02-01T08:06:05;5.20;90.30
14733;DHT22;7457;50.960;6.830;2023-02-01T08:08:31;5.20;90.10
14733;DHT22;7457;50.960;6.830;2023-02-01T08:10:58;5.20;89.70
14733;DHT22;7457;50.960;6.830;2023-02-01T08:13:24;5.20;89.60
14733;DHT22;7457;50.960;6.830;2023-02-01T08:15:50;5.20;89.50
14733;DHT22;7457;50.960;6.830;2023-02-01T08:18:15;5.20;89.50
14733;DHT22;7457;50.960;6.830;2023-02-01T08:20:45;5.20;89.50
14733;DHT22;7457;50.960;6.830;2023-02-01T08:23:12;5.20;89.70
14733;DHT22;7457;50.960;6.830;2023-02-01T08:25:37;5.20;89.80
14733;DHT22;7457;50.960;6.830;2023-02-01T08:28:05;5.20;90.00
14733;DHT22;7457;50.960;6.830;2023-02-01T08:30:30;5.20;90.20
14733;DHT22;7457;50.960;6.830;2023-02-01T08:32:56;5.20;90.10
14733;DHT22;7457;50.960;6.830;2023-02-01T08:35:22;5.20;90.20
14733;DHT22;7457;50.960;6.830;2023-02-01T08:37:50;5.20;90.40
14733;DHT22;7457;50.960;6.830;2023-02-01T08:40:16;5.30;90.60
14733;DHT22;7457;50.960;6.830;2023-02-01T08:42:41;5.30;90.60
14733;DHT22;7457;50.960;6.830;2023-02-01T08:45:17;5.30;90.90
14733;DHT22;7457;50.960;6.830;2023-02-01T08:47:44;5.40;90.70
14733;DHT22;7457;50.960;6.830;2023-02-01T08:50:10;5.50;90.20
14733;DHT22;7457;50.960;6.830;2023-02-01T08:52:36;5.50;90.10
14733;DHT22;7457;50.960;6.830;2023-02-01T08:55:01;5.50;89.80
14733;DHT22;7457;50.960;6.830;2023-02-01T08:57:27;5.60;90.00
14733;DHT22;7457;50.960;6.830;2023-02-01T08:59:53;5.60;90.00
14733;DHT22;7457;50.960;6.830;2023-02-01T09:02:19;5.70;90.20
14733;DHT22;7457;50.960;6.830;2023-02-01T09:04:44;5.80;90.00
14733;DHT22;7457;50.960;6.830;2023-02-01T09:07:10;5.90;89.50
14733;DHT22;7457;50.960;6.830;2023-02-01T09:09:36;6.00;89.50
14733;DHT22;7457;50.960;6.830;2023-02-01T09:12:03;6.00;90.10
14733;DHT22;7457;50.960;6.830;2023-02-01T09:14:29;6.20;90.50
14733;DHT22;7457;50.960;6.830;2023-02-01T09:16:55;6.50;90.80
14733;DHT22;7457;50.960;6.830;2023-02-01T09:19:20;6.80;89.30
14733;DHT22;7457;50.960;6.830;2023-02-01T09:21:46;7.00;88.50
14733;DHT22;7457;50.960;6.830;2023-02-01T09:24:12;7.10;86.70
14733;DHT22;7457;50.960;6.830;2023-02-01T09:26:38;7.00;85.40
14733;DHT22;7457;50.960;6.830;2023-02-01T09:29:04;6.90;85.00
14733;DHT22;7457;50.960;6.830;2023-02-01T09:31:35;6.80;84.70
14733;DHT22;7457;50.960;6.830;2023-02-01T09:34:01;6.60;85.30
14733;DHT22;7457;50.960;6.830;2023-02-01T09:36:27;6.50;85.50
14733;DHT22;7457;50.960;6.830;2023-02-01T09:38:52;6.50;85.50
14733;DHT22;7457;50.960;6.830;2023-02-01T09:46:32;6.60;87.40
14733;DHT22;7457;50.960;6.830;2023-02-01T09:49:05;6.90;86.90
14733;DHT22;7457;50.960;6.830;2023-02-01T09:51:37;7.10;86.30
14733;DHT22;7457;50.960;6.830;2023-02-01T09:54:16;7.20;85.70
14733;DHT22;7457;50.960;6.830;2023-02-01T09:56:47;7.20;85.10
14733;DHT22;7457;50.960;6.830;2023-02-01T09:59:52;7.20;84.70
14733;DHT22;7457;50.960;6.830;2023-02-01T10:02:23;7.10;84.80
14733;DHT22;7457;50.960;6.830;2023-02-01T10:04:50;7.10;84.60
14733;DHT22;7457;50.960;6.830;2023-02-01T10:07:24;7.00;84.60
14733;DHT22;7457;50.960;6.830;2023-02-01T10:10:06;7.00;84.50
14733;DHT22;7457;50.960;6.830;2023-02-01T10:15:28;7.60;87.50
14733;DHT22;7457;50.960;6.830;2023-02-01T10:27:53;9.70;81.90
14733;DHT22;7457;50.960;6.830;2023-02-01T10:30:22;10.20;81.10
14733;DHT22;7457;50.960;6.830;2023-02-01T10:32:52;10.50;79.50
14733;DHT22;7457;50.960;6.830;2023-02-01T10:35:28;10.70;77.90
14733;DHT22;7457;50.960;6.830;2023-02-01T10:37:58;10.60;76.10
14733;DHT22;7457;50.960;6.830;2023-02-01T10:40:26;10.50;76.40
14733;DHT22;7457;50.960;6.830;2023-02-01T10:42:57;10.70;75.30
14733;DHT22;7457;50.960;6.830;2023-02-01T10:45:27;10.80;76.20
14733;DHT22;7457;50.960;6.830;2023-02-01T10:47:54;11.10;74.90
14733;DHT22;7457;50.960;6.830;2023-02-01T10:53:03;11.70;74.40
14733;DHT22;7457;50.960;6.830;2023-02-01T10:58:04;11.80;70.00
14733;DHT22;7457;50.960;6.830;2023-02-01T11:00:44;11.40;71.20
14733;DHT22;7457;50.960;6.830;2023-02-01T11:09:08;10.90;72.00
14733;DHT22;7457;50.960;6.830;2023-02-01T11:14:17;10.30;71.00
14733;DHT22;7457;50.960;6.830;2023-02-01T11:16:52;9.80;71.30
14733;DHT22;7457;50.960;6.830;2023-02-01T11:19:18;9.40;72.40
14733;DHT22;7457;50.960;6.830;2023-02-01T11:21:45;9.20;73.20
14733;DHT22;7457;50.960;6.830;2023-02-01T11:26:48;8.70;76.10
14733;DHT22;7457;50.960;6.830;2023-02-01T11:29:17;8.60;74.70
14733;DHT22;7457;50.960;6.830;2023-02-01T11:31:47;8.50;75.60
14733;DHT22;7457;50.960;6.830;2023-02-01T11:34:18;8.40;76.40
14733;DHT22;7457;50.960;6.830;2023-02-01T11:36:47;8.40;76.40
14733;DHT22;7457;50.960;6.830;2023-02-01T11:39:27;8.30;77.00
14733;DHT22;7457;50.960;6.830;2023-02-01T11:49:50;8.20;77.20
14733;DHT22;7457;50.960;6.830;2023-02-01T11:52:26;8.10;77.10
14733;DHT22;7457;50.960;6.830;2023-02-01T12:00:36;8.00;77.50
14733;DHT22;7457;50.960;6.830;2023-02-01T12:24:19;7.50;78.80
14733;DHT22;7457;50.960;6.830;2023-02-01T12:43:07;7.90;79.20
14733;DHT22;7457;50.960;6.830;2023-02-01T12:45:44;8.00;78.90
14733;DHT22;7457;50.960;6.830;2023-02-01T12:51:06;7.90;77.80
14733;DHT22;7457;50.960;6.830;2023-02-01T12:56:28;7.70;77.70
14733;DHT22;7457;50.960;6.830;2023-02-01T12:58:59;7.70;77.60
14733;DHT22;7457;50.960;6.830;2023-02-01T13:01:39;7.60;77.60
14733;DHT22;7457;50.960;6.830;2023-02-01T13:04:20;7.50;78.00
14733;DHT22;7457;50.960;6.830;2023-02-01T13:09:39;7.40;78.60
14733;DHT22;7457;50.960;6.830;2023-02-01T13:12:40;7.30;78.80
14733;DHT22;7457;50.960;6.830;2023-02-01T13:15:23;7.30;78.70
14733;DHT22;7457;50.960;6.830;2023-02-01T13:17:51;7.30;78.80
14733;DHT22;7457;50.960;6.830;2023-02-01T13:20:32;7.30;79.10
14733;DHT22;7457;50.960;6.830;2023-02-01T13:25:43;7.30;79.30
14733;DHT22;7457;50.960;6.830;2023-02-01T13:28:26;7.30;79.40
14733;DHT22;7457;50.960;6.830;2023-02-01T13:42:24;7.30;80.60
14733;DHT22;7457;50.960;6.830;2023-02-01T13:47:33;7.20;81.30
14733;DHT22;7457;50.960;6.830;2023-02-01T13:50:19;7.20;81.50
14733;DHT22;7457;50.960;6.830;2023-02-01T13:52:52;7.20;81.70
14733;DHT22;7457;50.960;6.830;2023-02-01T13:57:52;7.20;81.70
14733;DHT22;7457;50.960;6.830;2023-02-01T14:00:28;7.20;81.60
14733;DHT22;7457;50.960;6.830;2023-02-01T14:10:59;7.30;81.60
14733;DHT22;7457;50.960;6.830;2023-02-01T14:13:41;7.30;81.20
14733;DHT22;7457;50.960;6.830;2023-02-01T14:16:14;7.30;80.90
14733;DHT22;7457;50.960;6.830;2023-02-01T14:23:43;7.50;80.50
14733;DHT22;7457;50.960;6.830;2023-02-01T14:26:13;7.50;80.10
14733;DHT22;7457;50.960;6.830;2023-02-01T14:34:00;7.60;79.40
14733;DHT22;7457;50.960;6.830;2023-02-01T14:36:58;7.60;79.10
14733;DHT22;7457;50.960;6.830;2023-02-01T14:39:34;7.60;78.70
14733;DHT22;7457;50.960;6.830;2023-02-01T14:42:04;7.70;78.70
14733;DHT22;7457;50.960;6.830;2023-02-01T14:44:33;7.60;78.60
14733;DHT22;7457;50.960;6.830;2023-02-01T14:47:06;7.60;78.60
14733;DHT22;7457;50.960;6.830;2023-02-01T14:49:42;7.60;78.60
14733;DHT22;7457;50.960;6.830;2023-02-01T14:52:16;7.60;78.70
14733;DHT22;7457;50.960;6.830;2023-02-01T14:54:51;7.60;78.40
14733;DHT22;7457;50.960;6.830;2023-02-01T14:57:20;7.60;78.30
14733;DHT22;7457;50.960;6.830;2023-02-01T14:59:46;7.60;78.20
14733;DHT22;7457;50.960;6.830;2023-02-01T15:02:23;7.70;78.30
14733;DHT22;7457;50.960;6.830;2023-02-01T15:04:54;7.70;78.10
14733;DHT22;7457;50.960;6.830;2023-02-01T15:07:23;7.70;77.90
14733;DHT22;7457;50.960;6.830;2023-02-01T15:09:50;7.70;77.70
14733;DHT22;7457;50.960;6.830;2023-02-01T15:12:22;7.70;77.60
14733;DHT22;7457;50.960;6.830;2023-02-01T15:17:34;7.70;76.80
14733;DHT22;7457;50.960;6.830;2023-02-01T15:20:03;7.70;76.80
14733;DHT22;7457;50.960;6.830;2023-02-01T15:22:30;7.70;76.60
14733;DHT22;7457;50.960;6.830;2023-02-01T15:25:00;7.70;76.70
14733;DHT22;7457;50.960;6.830;2023-02-01T15:27:27;7.70;76.60
14733;DHT22;7457;50.960;6.830;2023-02-01T15:29:53;7.70;76.50
14733;DHT22;7457;50.960;6.830;2023-02-01T15:32:33;7.70;76.50
14733;DHT22;7457;50.960;6.830;2023-02-01T15:35:00;7.70;76.70
14733;DHT22;7457;50.960;6.830;2023-02-01T15:37:27;7.60;76.70
14733;DHT22;7457;50.960;6.830;2023-02-01T15:45:21;7.60;77.10
14733;DHT22;7457;50.960;6.830;2023-02-01T15:47:48;7.60;77.10
14733;DHT22;7457;50.960;6.830;2023-02-01T15:50:16;7.60;77.20
14733;DHT22;7457;50.960;6.830;2023-02-01T15:52:42;7.60;77.10
14733;DHT22;7457;50.960;6.830;2023-02-01T15:55:21;7.60;77.20
14733;DHT22;7457;50.960;6.830;2023-02-01T15:57:48;7.60;77.20
14733;DHT22;7457;50.960;6.830;2023-02-01T16:00:26;7.60;77.10
14733;DHT22;7457;50.960;6.830;2023-02-01T16:05:53;7.60;77.30
14733;DHT22;7457;50.960;6.830;2023-02-01T16:08:26;7.60;77.30
14733;DHT22;7457;50.960;6.830;2023-02-01T16:10:59;7.50;77.50
14733;DHT22;7457;50.960;6.830;2023-02-01T16:13:25;7.50;77.70
14733;DHT22;7457;50.960;6.830;2023-02-01T16:15:50;7.50;78.00
14733;DHT22;7457;50.960;6.830;2023-02-01T16:18:16;7.50;78.50
14733;DHT22;7457;50.960;6.830;2023-02-01T16:20:42;7.40;79.70
14733;DHT22;7457;50.960;6.830;2023-02-01T16:23:09;7.30;80.70
14733;DHT22;7457;50.960;6.830;2023-02-01T16:25:37;7.20;81.60
14733;DHT22;7457;50.960;6.830;2023-02-01T16:28:03;7.00;82.20
14733;DHT22;7457;50.960;6.830;2023-02-01T16:30:30;6.90;83.40
14733;DHT22;7457;50.960;6.830;2023-02-01T16:32:58;6.80;84.10
14733;DHT22;7457;50.960;6.830;2023-02-01T16:35:30;6.70;84.80
14733;DHT22;7457;50.960;6.830;2023-02-01T16:38:01;6.60;85.40
14733;DHT22;7457;50.960;6.830;2023-02-01T16:40:27;6.60;86.30
14733;DHT22;7457;50.960;6.830;2023-02-01T16:42:53;6.50;86.60
14733;DHT22;7457;50.960;6.830;2023-02-01T16:45:22;6.50;86.90
14733;DHT22;7457;50.960;6.830;2023-02-01T16:47:50;6.50;87.40
14733;DHT22;7457;50.960;6.830;2023-02-01T16:50:26;6.50;87.70
14733;DHT22;7457;50.960;6.830;2023-02-01T16:52:52;6.50;88.00
14733;DHT22;7457;50.960;6.830;2023-02-01T16:55:20;6.50;88.10
14733;DHT22;7457;50.960;6.830;2023-02-01T16:57:47;6.50;88.40
14733;DHT22;7457;50.960;6.830;2023-02-01T17:00:13;6.50;88.70
14733;DHT22;7457;50.960;6.830;2023-02-01T17:02:41;6.50;88.80
14733;DHT22;7457;50.960;6.830;2023-02-01T17:05:08;6.50;88.70
14733;DHT22;7457;50.960;6.830;2023-02-01T17:07:33;6.50;88.80
14733;DHT22;7457;50.960;6.830;2023-02-01T17:10:00;6.50;88.80
14733;DHT22;7457;50.960;6.830;2023-02-01T17:12:30;6.60;88.70
14733;DHT22;7457;50.960;6.830;2023-02-01T17:14:58;6.60;88.70
14733;DHT22;7457;50.960;6.830;2023-02-01T17:17:27;6.60;88.70
14733;DHT22;7457;50.960;6.830;2023-02-01T17:19:55;6.60;88.80
14733;DHT22;7457;50.960;6.830;2023-02-01T17:22:22;6.60;88.90
14733;DHT22;7457;50.960;6.830;2023-02-01T17:24:48;6.50;88.90
14733;DHT22;7457;50.960;6.830;2023-02-01T17:27:16;6.50;89.20
14733;DHT22;7457;50.960;6.830;2023-02-01T17:29:42;6.60;89.10
14733;DHT22;7457;50.960;6.830;2023-02-01T17:32:16;6.60;89.10
14733;DHT22;7457;50.960;6.830;2023-02-01T17:34:42;6.50;89.30
14733;DHT22;7457;50.960;6.830;2023-02-01T17:39:49;6.50;89.50
14733;DHT22;7457;50.960;6.830;2023-02-01T17:42:25;6.50;89.60
14733;DHT22;7457;50.960;6.830;2023-02-01T17:45:05;6.50;89.70
14733;DHT22;7457;50.960;6.830;2023-02-01T17:47:36;6.50;89.80
14733;DHT22;7457;50.960;6.830;2023-02-01T17:50:03;6.50;89.80
14733;DHT22;7457;50.960;6.830;2023-02-01T17:52:28;6.50;90.00
14733;DHT22;7457;50.960;6.830;2023-02-01T17:54:54;6.50;90.00
14733;DHT22;7457;50.960;6.830;2023-02-01T17:57:20;6.50;89.90
14733;DHT22;7457;50.960;6.830;2023-02-01T17:59:46;6.50;89.80
14733;DHT22;7457;50.960;6.830;2023-02-01T18:04:45;6.50;89.70
14733;DHT22;7457;50.960;6.830;2023-02-01T18:07:10;6.60;89.70
14733;DHT22;7457;50.960;6.830;2023-02-01T18:09:36;6.60;89.70
14733;DHT22;7457;50.960;6.830;2023-02-01T18:12:03;6.60;89.50
14733;DHT22;7457;50.960;6.830;2023-02-01T18:14:30;6.60;89.40
14733;DHT22;7457;50.960;6.830;2023-02-01T18:16:55;6.70;89.20
14733;DHT22;7457;50.960;6.830;2023-02-01T18:19:21;6.70;89.00
14733;DHT22;7457;50.960;6.830;2023-02-01T18:21:46;6.70;88.80
14733;DHT22;7457;50.960;6.830;2023-02-01T18:24:13;6.70;88.70
14733;DHT22;7457;50.960;6.830;2023-02-01T18:26:41;6.70;88.60
14733;DHT22;7457;50.960;6.830;2023-02-01T18:29:06;6.70;88.50
14733;DHT22;7457;50.960;6.830;2023-02-01T18:31:33;6.70;88.40
14733;DHT22;7457;50.960;6.830;2023-02-01T18:34:00;6.70;88.30
14733;DHT22;7457;50.960;6.830;2023-02-01T18:36:26;6.80;88.20
14733;DHT22;7457;50.960;6.830;2023-02-01T18:38:52;6.80;88.10
14733;DHT22;7457;50.960;6.830;2023-02-01T18:41:21;6.80;88.00
14733;DHT22;7457;50.960;6.830;2023-02-01T18:43:48;6.80;87.80
14733;DHT22;7457;50.960;6.830;2023-02-01T18:46:15;6.80;87.80
14733;DHT22;7457;50.960;6.830;2023-02-01T18:48:41;6.80;87.80
14733;DHT22;7457;50.960;6.830;2023-02-01T18:51:16;6.70;87.80
14733;DHT22;7457;50.960;6.830;2023-02-01T18:53:44;6.70;87.80
14733;DHT22;7457;50.960;6.830;2023-02-01T18:56:11;6.70;87.60
14733;DHT22;7457;50.960;6.830;2023-02-01T18:58:37;6.70;87.50
14733;DHT22;7457;50.960;6.830;2023-02-01T19:01:08;6.80;87.20
14733;DHT22;7457;50.960;6.830;2023-02-01T19:03:35;6.80;87.00
14733;DHT22;7457;50.960;6.830;2023-02-01T19:06:00;6.80;86.90
14733;DHT22;7457;50.960;6.830;2023-02-01T19:08:26;6.80;86.80
14733;DHT22;7457;50.960;6.830;2023-02-01T19:10:52;6.80;86.60
14733;DHT22;7457;50.960;6.830;2023-02-01T19:13:18;6.90;86.50
14733;DHT22;7457;50.960;6.830;2023-02-01T19:15:49;6.90;86.30
14733;DHT22;7457;50.960;6.830;2023-02-01T19:18:15;6.90;86.20
14733;DHT22;7457;50.960;6.830;2023-02-01T19:20:45;7.00;86.00
14733;DHT22;7457;50.960;6.830;2023-02-01T19:23:13;7.00;85.80
14733;DHT22;7457;50.960;6.830;2023-02-01T19:25:42;7.00;85.50